sensor_id;sensor_type;location;lat;lon;timestamp;P1;durP1;ratioP1;P2;durP2;ratioP2
62574;SDS011;53112;45.602;11.904;2023-04-28T00:01:09;3.22;;;1.75;;
62574;SDS011;53112;45.602;11.904;2023-04-28T00:03:36;2.13;;;1.70;;
62574;SDS011;53112;45.602;11.904;2023-04-28T00:06:02;1.98;;;1.70;;
62574;SDS011;53112;45.602;11.904;2023-04-28T00:08:28;2.38;;;1.80;;
62574;SDS011;53112;45.602;11.904;2023-04-28T00:10:54;2.83;;;1.80;;
62574;SDS011;53112;45.602;11.904;2023-04-28T00:13:20;3.92;;;1.98;;
62574;SDS011;53112;45.602;11.904;2023-04-28T00:15:48;2.88;;;1.88;;
62574;SDS011;53112;45.602;11.904;2023-04-28T00:18:14;2.65;;;1.80;;
62574;SDS011;53112;45.602;11.904;2023-04-28T00:20:40;1.85;;;1.73;;
62574;SDS011;53112;45.602;11.904;2023-04-28T00:23:06;2.38;;;1.80;;
62574;SDS011;53112;45.602;11.904;2023-04-28T00:25:32;2.25;;;1.90;;
62574;SDS011;53112;45.602;11.904;2023-04-28T00:27:58;2.65;;;1.80;;
62574;SDS011;53112;45.602;11.904;2023-04-28T00:30:24;2.65;;;2.03;;
62574;SDS011;53112;45.602;11.904;2023-04-28T00:32:50;1.98;;;1.60;;
62574;SDS011;53112;45.602;11.904;2023-04-28T00:35:16;1.98;;;1.77;;
62574;SDS011;53112;45.602;11.904;2023-04-28T00:37:43;2.13;;;1.80;;
62574;SDS011;53112;45.602;11.904;2023-04-28T00:40:09;2.58;;;1.85;;
62574;SDS011;53112;45.602;11.904;2023-04-28T00:42:35;2.25;;;1.80;;
62574;SDS011;53112;45.602;11.904;2023-04-28T00:45:01;3.25;;;1.77;;
62574;SDS011;53112;45.602;11.904;2023-04-28T00:47:31;2.20;;;1.80;;
62574;SDS011;53112;45.602;11.904;2023-04-28T00:49:58;1.88;;;1.70;;
62574;SDS011;53112;45.602;11.904;2023-04-28T00:52:28;3.10;;;2.00;;
62574;SDS011;53112;45.602;11.904;2023-04-28T00:54:54;2.85;;;1.77;;
62574;SDS011;53112;45.602;11.904;2023-04-28T00:57:21;2.13;;;1.80;;
62574;SDS011;53112;45.602;11.904;2023-04-28T00:59:47;2.88;;;1.80;;
62574;SDS011;53112;45.602;11.904;2023-04-28T01:02:14;2.03;;;1.65;;
62574;SDS011;53112;45.602;11.904;2023-04-28T01:04:46;2.53;;;1.70;;
62574;SDS011;53112;45.602;11.904;2023-04-28T01:07:12;1.95;;;1.80;;
62574;SDS011;53112;45.602;11.904;2023-04-28T01:09:38;2.03;;;1.70;;
62574;SDS011;53112;45.602;11.904;2023-04-28T01:12:04;2.45;;;1.70;;
62574;SDS011;53112;45.602;11.904;2023-04-28T01:14:31;2.58;;;1.80;;
62574;SDS011;53112;45.602;11.904;2023-04-28T01:16:57;2.58;;;1.83;;
62574;SDS011;53112;45.602;11.904;2023-04-28T01:19:23;2.67;;;1.88;;
62574;SDS011;53112;45.602;11.904;2023-04-28T01:21:49;2.25;;;1.80;;
62574;SDS011;53112;45.602;11.904;2023-04-28T01:24:16;2.00;;;1.70;;
62574;SDS011;53112;45.602;11.904;2023-04-28T01:26:42;1.95;;;1.60;;
62574;SDS011;53112;45.602;11.904;2023-04-28T01:29:09;1.95;;;1.70;;
62574;SDS011;53112;45.602;11.904;2023-04-28T01:31:35;2.25;;;1.80;;
62574;SDS011;53112;45.602;11.904;2023-04-28T01:34:01;3.03;;;1.70;;
62574;SDS011;53112;45.602;11.904;2023-04-28T01:36:27;2.80;;;2.08;;
62574;SDS011;53112;45.602;11.904;2023-04-28T01:38:53;1.95;;;1.60;;
62574;SDS011;53112;45.602;11.904;2023-04-28T01:41:19;3.00;;;1.90;;
62574;SDS011;53112;45.602;11.904;2023-04-28T01:43:46;1.70;;;1.60;;
62574;SDS011;53112;45.602;11.904;2023-04-28T01:46:12;2.97;;;2.00;;
62574;SDS011;53112;45.602;11.904;2023-04-28T01:48:38;2.75;;;1.80;;
62574;SDS011;53112;45.602;11.904;2023-04-28T01:51:04;3.20;;;1.73;;
62574;SDS011;53112;45.602;11.904;2023-04-28T01:53:30;2.25;;;1.70;;
62574;SDS011;53112;45.602;11.904;2023-04-28T01:55:56;2.20;;;1.80;;
62574;SDS011;53112;45.602;11.904;2023-04-28T01:58:23;2.10;;;1.90;;
62574;SDS011;53112;45.602;11.904;2023-04-28T02:00:49;2.45;;;2.00;;
62574;SDS011;53112;45.602;11.904;2023-04-28T02:03:15;2.63;;;1.80;;
62574;SDS011;53112;45.602;11.904;2023-04-28T02:05:47;3.92;;;2.03;;
62574;SDS011;53112;45.602;11.904;2023-04-28T02:08:14;2.00;;;1.80;;
62574;SDS011;53112;45.602;11.904;2023-04-28T02:10:40;2.45;;;1.80;;
62574;SDS011;53112;45.602;11.904;2023-04-28T02:13:06;2.58;;;1.73;;
62574;SDS011;53112;45.602;11.904;2023-04-28T02:15:32;3.65;;;1.90;;
62574;SDS011;53112;45.602;11.904;2023-04-28T02:17:59;2.63;;;1.80;;
62574;SDS011;53112;45.602;11.904;2023-04-28T02:20:25;2.00;;;1.80;;
62574;SDS011;53112;45.602;11.904;2023-04-28T02:22:51;2.85;;;1.88;;
62574;SDS011;53112;45.602;11.904;2023-04-28T02:25:17;2.97;;;2.00;;
62574;SDS011;53112;45.602;11.904;2023-04-28T02:27:43;3.20;;;1.88;;
62574;SDS011;53112;45.602;11.904;2023-04-28T02:30:10;3.22;;;2.20;;
62574;SDS011;53112;45.602;11.904;2023-04-28T02:32:36;2.72;;;1.95;;
62574;SDS011;53112;45.602;11.904;2023-04-28T02:35:02;2.50;;;1.88;;
62574;SDS011;53112;45.602;11.904;2023-04-28T02:37:28;2.45;;;1.80;;
62574;SDS011;53112;45.602;11.904;2023-04-28T02:39:54;2.55;;;2.00;;
62574;SDS011;53112;45.602;11.904;2023-04-28T02:42:20;2.80;;;1.90;;
62574;SDS011;53112;45.602;11.904;2023-04-28T02:44:46;2.10;;;1.70;;
62574;SDS011;53112;45.602;11.904;2023-04-28T02:47:12;2.25;;;1.70;;
62574;SDS011;53112;45.602;11.904;2023-04-28T02:49:38;2.92;;;1.73;;
62574;SDS011;53112;45.602;11.904;2023-04-28T02:52:04;2.42;;;1.90;;
62574;SDS011;53112;45.602;11.904;2023-04-28T02:54:30;2.70;;;2.00;;
62574;SDS011;53112;45.602;11.904;2023-04-28T02:56:58;2.03;;;1.80;;
62574;SDS011;53112;45.602;11.904;2023-04-28T02:59:24;2.47;;;1.80;;
62574;SDS011;53112;45.602;11.904;2023-04-28T03:01:51;2.42;;;1.80;;
62574;SDS011;53112;45.602;11.904;2023-04-28T03:04:17;2.53;;;1.80;;
62574;SDS011;53112;45.602;11.904;2023-04-28T03:06:43;2.78;;;1.90;;
62574;SDS011;53112;45.602;11.904;2023-04-28T03:09:09;2.20;;;1.80;;
62574;SDS011;53112;45.602;11.904;2023-04-28T03:11:35;2.28;;;2.00;;
62574;SDS011;53112;45.602;11.904;2023-04-28T03:14:01;2.45;;;1.90;;
62574;SDS011;53112;45.602;11.904;2023-04-28T03:16:27;2.65;;;1.90;;
62574;SDS011;53112;45.602;11.904;2023-04-28T03:18:53;2.88;;;1.90;;
62574;SDS011;53112;45.602;11.904;2023-04-28T03:21:19;3.22;;;1.80;;
62574;SDS011;53112;45.602;11.904;2023-04-28T03:23:45;2.08;;;1.70;;
62574;SDS011;53112;45.602;11.904;2023-04-28T03:26:11;2.28;;;1.77;;
62574;SDS011;53112;45.602;11.904;2023-04-28T03:28:37;3.25;;;1.95;;
62574;SDS011;53112;45.602;11.904;2023-04-28T03:31:03;1.90;;;1.75;;
62574;SDS011;53112;45.602;11.904;2023-04-28T03:33:29;1.90;;;1.80;;
62574;SDS011;53112;45.602;11.904;2023-04-28T03:35:55;2.33;;;1.77;;
62574;SDS011;53112;45.602;11.904;2023-04-28T03:38:21;1.92;;;1.70;;
62574;SDS011;53112;45.602;11.904;2023-04-28T03:40:47;2.30;;;1.98;;
62574;SDS011;53112;45.602;11.904;2023-04-28T03:43:13;1.92;;;1.73;;
62574;SDS011;53112;45.602;11.904;2023-04-28T03:45:39;2.38;;;1.80;;
62574;SDS011;53112;45.602;11.904;2023-04-28T03:48:06;2.13;;;1.90;;
62574;SDS011;53112;45.602;11.904;2023-04-28T03:50:32;2.60;;;1.88;;
62574;SDS011;53112;45.602;11.904;2023-04-28T03:52:58;3.15;;;2.00;;
62574;SDS011;53112;45.602;11.904;2023-04-28T03:55:24;2.20;;;1.80;;
62574;SDS011;53112;45.602;11.904;2023-04-28T03:57:50;1.83;;;1.73;;
62574;SDS011;53112;45.602;11.904;2023-04-28T04:00:16;2.20;;;1.80;;
62574;SDS011;53112;45.602;11.904;2023-04-28T04:02:42;2.10;;;1.70;;
62574;SDS011;53112;45.602;11.904;2023-04-28T04:05:09;5.50;;;1.98;;
62574;SDS011;53112;45.602;11.904;2023-04-28T04:07:34;2.65;;;1.90;;
62574;SDS011;53112;45.602;11.904;2023-04-28T04:10:00;1.80;;;1.70;;
62574;SDS011;53112;45.602;11.904;2023-04-28T04:12:26;2.42;;;1.80;;
62574;SDS011;53112;45.602;11.904;2023-04-28T04:14:52;2.25;;;1.80;;
62574;SDS011;53112;45.602;11.904;2023-04-28T04:17:18;2.58;;;1.98;;
62574;SDS011;53112;45.602;11.904;2023-04-28T04:19:44;1.70;;;1.60;;
62574;SDS011;53112;45.602;11.904;2023-04-28T04:22:10;3.40;;;1.85;;
62574;SDS011;53112;45.602;11.904;2023-04-28T04:24:36;2.85;;;1.88;;
62574;SDS011;53112;45.602;11.904;2023-04-28T04:27:02;2.20;;;1.90;;
62574;SDS011;53112;45.602;11.904;2023-04-28T04:29:28;1.85;;;1.73;;
62574;SDS011;53112;45.602;11.904;2023-04-28T04:31:54;1.90;;;1.70;;
62574;SDS011;53112;45.602;11.904;2023-04-28T04:34:20;2.50;;;1.77;;
62574;SDS011;53112;45.602;11.904;2023-04-28T04:36:46;3.10;;;1.80;;
62574;SDS011;53112;45.602;11.904;2023-04-28T04:39:12;1.77;;;1.67;;
62574;SDS011;53112;45.602;11.904;2023-04-28T04:41:38;3.13;;;1.67;;
62574;SDS011;53112;45.602;11.904;2023-04-28T04:44:04;2.13;;;1.90;;
62574;SDS011;53112;45.602;11.904;2023-04-28T04:46:30;1.80;;;1.70;;
62574;SDS011;53112;45.602;11.904;2023-04-28T04:48:56;3.35;;;1.83;;
62574;SDS011;53112;45.602;11.904;2023-04-28T04:51:22;2.55;;;1.90;;
62574;SDS011;53112;45.602;11.904;2023-04-28T04:53:48;1.77;;;1.67;;
62574;SDS011;53112;45.602;11.904;2023-04-28T04:56:14;1.88;;;1.70;;
62574;SDS011;53112;45.602;11.904;2023-04-28T04:58:41;1.70;;;1.60;;
62574;SDS011;53112;45.602;11.904;2023-04-28T05:01:08;2.00;;;1.80;;
62574;SDS011;53112;45.602;11.904;2023-04-28T05:03:35;2.35;;;1.70;;
62574;SDS011;53112;45.602;11.904;2023-04-28T05:06:00;2.08;;;1.80;;
62574;SDS011;53112;45.602;11.904;2023-04-28T05:08:27;2.20;;;2.00;;
62574;SDS011;53112;45.602;11.904;2023-04-28T05:10:54;2.22;;;1.80;;
62574;SDS011;53112;45.602;11.904;2023-04-28T05:13:19;2.28;;;1.80;;
62574;SDS011;53112;45.602;11.904;2023-04-28T05:15:45;2.15;;;1.80;;
62574;SDS011;53112;45.602;11.904;2023-04-28T05:18:11;2.30;;;1.80;;
62574;SDS011;53112;45.602;11.904;2023-04-28T05:20:38;2.67;;;2.00;;
62574;SDS011;53112;45.602;11.904;2023-04-28T05:23:05;2.67;;;1.67;;
62574;SDS011;53112;45.602;11.904;2023-04-28T05:25:31;2.25;;;1.80;;
62574;SDS011;53112;45.602;11.904;2023-04-28T05:27:57;2.50;;;1.70;;
62574;SDS011;53112;45.602;11.904;2023-04-28T05:30:23;2.83;;;1.90;;
62574;SDS011;53112;45.602;11.904;2023-04-28T05:32:49;2.63;;;2.00;;
62574;SDS011;53112;45.602;11.904;2023-04-28T05:35:15;1.90;;;1.80;;
62574;SDS011;53112;45.602;11.904;2023-04-28T05:37:41;2.00;;;1.80;;
62574;SDS011;53112;45.602;11.904;2023-04-28T05:40:09;2.10;;;1.90;;
62574;SDS011;53112;45.602;11.904;2023-04-28T05:42:35;2.13;;;1.80;;
62574;SDS011;53112;45.602;11.904;2023-04-28T05:45:01;1.70;;;1.60;;
62574;SDS011;53112;45.602;11.904;2023-04-28T05:47:28;2.40;;;1.83;;
62574;SDS011;53112;45.602;11.904;2023-04-28T05:49:55;1.85;;;1.70;;
62574;SDS011;53112;45.602;11.904;2023-04-28T05:52:21;2.60;;;1.70;;
62574;SDS011;53112;45.602;11.904;2023-04-28T05:54:47;1.95;;;1.73;;
62574;SDS011;53112;45.602;11.904;2023-04-28T05:57:13;1.85;;;1.70;;
62574;SDS011;53112;45.602;11.904;2023-04-28T05:59:39;2.47;;;1.83;;
62574;SDS011;53112;45.602;11.904;2023-04-28T06:02:05;2.65;;;1.80;;
62574;SDS011;53112;45.602;11.904;2023-04-28T06:04:31;1.77;;;1.67;;
62574;SDS011;53112;45.602;11.904;2023-04-28T06:06:57;2.15;;;1.90;;
62574;SDS011;53112;45.602;11.904;2023-04-28T06:09:23;1.85;;;1.70;;
62574;SDS011;53112;45.602;11.904;2023-04-28T06:11:49;1.85;;;1.75;;
62574;SDS011;53112;45.602;11.904;2023-04-28T06:14:15;1.90;;;1.70;;
62574;SDS011;53112;45.602;11.904;2023-04-28T06:16:41;2.28;;;1.70;;
62574;SDS011;53112;45.602;11.904;2023-04-28T06:19:06;1.95;;;1.75;;
62574;SDS011;53112;45.602;11.904;2023-04-28T06:21:32;1.77;;;1.67;;
62574;SDS011;53112;45.602;11.904;2023-04-28T06:23:58;1.90;;;1.70;;
62574;SDS011;53112;45.602;11.904;2023-04-28T06:26:26;1.98;;;1.80;;
62574;SDS011;53112;45.602;11.904;2023-04-28T06:28:52;1.73;;;1.63;;
62574;SDS011;53112;45.602;11.904;2023-04-28T06:31:18;2.10;;;1.80;;
62574;SDS011;53112;45.602;11.904;2023-04-28T06:33:43;2.22;;;1.77;;
62574;SDS011;53112;45.602;11.904;2023-04-28T06:36:09;1.83;;;1.67;;
62574;SDS011;53112;45.602;11.904;2023-04-28T06:38:38;2.00;;;1.80;;
62574;SDS011;53112;45.602;11.904;2023-04-28T06:41:06;2.03;;;1.80;;
62574;SDS011;53112;45.602;11.904;2023-04-28T06:43:33;1.73;;;1.63;;
62574;SDS011;53112;45.602;11.904;2023-04-28T06:45:59;1.90;;;1.70;;
62574;SDS011;53112;45.602;11.904;2023-04-28T06:48:25;2.05;;;1.70;;
62574;SDS011;53112;45.602;11.904;2023-04-28T06:50:51;2.88;;;1.67;;
62574;SDS011;53112;45.602;11.904;2023-04-28T06:53:17;1.85;;;1.67;;
62574;SDS011;53112;45.602;11.904;2023-04-28T06:55:43;4.82;;;1.92;;
62574;SDS011;53112;45.602;11.904;2023-04-28T06:58:09;3.97;;;1.80;;
62574;SDS011;53112;45.602;11.904;2023-04-28T07:00:35;3.08;;;2.00;;
62574;SDS011;53112;45.602;11.904;2023-04-28T07:03:01;2.65;;;1.65;;
62574;SDS011;53112;45.602;11.904;2023-04-28T07:05:27;3.42;;;1.60;;
62574;SDS011;53112;45.602;11.904;2023-04-28T07:07:53;1.85;;;1.60;;
62574;SDS011;53112;45.602;11.904;2023-04-28T07:10:19;3.70;;;2.00;;
62574;SDS011;53112;45.602;11.904;2023-04-28T07:12:45;2.38;;;1.70;;
62574;SDS011;53112;45.602;11.904;2023-04-28T07:15:11;2.10;;;1.70;;
62574;SDS011;53112;45.602;11.904;2023-04-28T07:17:37;2.25;;;1.73;;
62574;SDS011;53112;45.602;11.904;2023-04-28T07:20:03;1.77;;;1.55;;
62574;SDS011;53112;45.602;11.904;2023-04-28T07:22:31;2.78;;;1.90;;
62574;SDS011;53112;45.602;11.904;2023-04-28T07:24:56;2.85;;;1.90;;
62574;SDS011;53112;45.602;11.904;2023-04-28T07:27:22;2.78;;;1.67;;
62574;SDS011;53112;45.602;11.904;2023-04-28T07:29:48;2.33;;;1.70;;
62574;SDS011;53112;45.602;11.904;2023-04-28T07:32:14;2.40;;;1.80;;
62574;SDS011;53112;45.602;11.904;2023-04-28T07:34:40;3.00;;;1.70;;
62574;SDS011;53112;45.602;11.904;2023-04-28T07:37:06;2.28;;;1.80;;
62574;SDS011;53112;45.602;11.904;2023-04-28T07:39:32;3.80;;;1.80;;
62574;SDS011;53112;45.602;11.904;2023-04-28T07:42:00;1.80;;;1.65;;
62574;SDS011;53112;45.602;11.904;2023-04-28T07:44:27;2.90;;;1.70;;
62574;SDS011;53112;45.602;11.904;2023-04-28T07:46:54;2.55;;;1.80;;
62574;SDS011;53112;45.602;11.904;2023-04-28T07:49:20;4.45;;;1.80;;
62574;SDS011;53112;45.602;11.904;2023-04-28T07:51:46;2.70;;;1.77;;
62574;SDS011;53112;45.602;11.904;2023-04-28T07:54:12;2.85;;;1.70;;
62574;SDS011;53112;45.602;11.904;2023-04-28T07:56:39;3.65;;;1.70;;
62574;SDS011;53112;45.602;11.904;2023-04-28T07:59:05;2.92;;;1.70;;
62574;SDS011;53112;45.602;11.904;2023-04-28T08:01:30;3.20;;;1.80;;
62574;SDS011;53112;45.602;11.904;2023-04-28T08:03:56;2.33;;;1.90;;
62574;SDS011;53112;45.602;11.904;2023-04-28T08:06:22;3.03;;;1.90;;
62574;SDS011;53112;45.602;11.904;2023-04-28T08:08:47;1.92;;;1.60;;
62574;SDS011;53112;45.602;11.904;2023-04-28T08:11:13;3.45;;;1.92;;
62574;SDS011;53112;45.602;11.904;2023-04-28T08:13:39;3.50;;;1.77;;
62574;SDS011;53112;45.602;11.904;2023-04-28T08:16:05;3.13;;;1.70;;
62574;SDS011;53112;45.602;11.904;2023-04-28T08:18:31;3.75;;;1.92;;
62574;SDS011;53112;45.602;11.904;2023-04-28T08:20:57;2.05;;;1.70;;
62574;SDS011;53112;45.602;11.904;2023-04-28T08:23:23;1.85;;;1.70;;
62574;SDS011;53112;45.602;11.904;2023-04-28T08:25:52;3.17;;;1.77;;
62574;SDS011;53112;45.602;11.904;2023-04-28T08:28:18;3.05;;;1.80;;
62574;SDS011;53112;45.602;11.904;2023-04-28T08:30:44;2.05;;;1.70;;
62574;SDS011;53112;45.602;11.904;2023-04-28T08:33:10;2.90;;;1.80;;
62574;SDS011;53112;45.602;11.904;2023-04-28T08:35:36;2.30;;;1.80;;
62574;SDS011;53112;45.602;11.904;2023-04-28T08:38:02;1.95;;;1.75;;
62574;SDS011;53112;45.602;11.904;2023-04-28T08:40:28;1.90;;;1.70;;
62574;SDS011;53112;45.602;11.904;2023-04-28T08:42:55;3.78;;;1.70;;
62574;SDS011;53112;45.602;11.904;2023-04-28T08:45:22;2.50;;;1.60;;
62574;SDS011;53112;45.602;11.904;2023-04-28T08:47:49;2.25;;;1.70;;
62574;SDS011;53112;45.602;11.904;2023-04-28T08:50:18;3.22;;;1.90;;
62574;SDS011;53112;45.602;11.904;2023-04-28T08:52:47;7.53;;;2.10;;
62574;SDS011;53112;45.602;11.904;2023-04-28T08:55:16;2.60;;;1.70;;
62574;SDS011;53112;45.602;11.904;2023-04-28T08:57:43;3.33;;;2.10;;
62574;SDS011;53112;45.602;11.904;2023-04-28T09:00:19;3.65;;;1.77;;
62574;SDS011;53112;45.602;11.904;2023-04-28T09:02:45;2.20;;;1.80;;
62574;SDS011;53112;45.602;11.904;2023-04-28T09:05:11;3.28;;;1.80;;
62574;SDS011;53112;45.602;11.904;2023-04-28T09:07:38;1.98;;;1.77;;
62574;SDS011;53112;45.602;11.904;2023-04-28T09:10:14;3.00;;;1.80;;
62574;SDS011;53112;45.602;11.904;2023-04-28T09:12:44;4.35;;;1.88;;
62574;SDS011;53112;45.602;11.904;2023-04-28T09:15:31;3.78;;;1.90;;
62574;SDS011;53112;45.602;11.904;2023-04-28T09:17:59;3.47;;;2.00;;
62574;SDS011;53112;45.602;11.904;2023-04-28T09:20:27;2.00;;;1.80;;
62574;SDS011;53112;45.602;11.904;2023-04-28T09:22:54;3.53;;;2.05;;
62574;SDS011;53112;45.602;11.904;2023-04-28T09:25:21;3.83;;;2.03;;
62574;SDS011;53112;45.602;11.904;2023-04-28T09:27:50;3.80;;;2.00;;
62574;SDS011;53112;45.602;11.904;2023-04-28T09:30:17;3.50;;;1.80;;
62574;SDS011;53112;45.602;11.904;2023-04-28T09:32:42;4.35;;;2.05;;
62574;SDS011;53112;45.602;11.904;2023-04-28T09:35:08;6.28;;;1.90;;
62574;SDS011;53112;45.602;11.904;2023-04-28T09:37:34;3.38;;;2.08;;
62574;SDS011;53112;45.602;11.904;2023-04-28T09:40:02;3.83;;;2.20;;
62574;SDS011;53112;45.602;11.904;2023-04-28T09:42:30;2.92;;;2.00;;
62574;SDS011;53112;45.602;11.904;2023-04-28T09:45:04;1.90;;;1.70;;
62574;SDS011;53112;45.602;11.904;2023-04-28T09:47:32;3.97;;;2.15;;
62574;SDS011;53112;45.602;11.904;2023-04-28T09:50:00;3.83;;;2.08;;
62574;SDS011;53112;45.602;11.904;2023-04-28T09:52:28;3.38;;;2.08;;
62574;SDS011;53112;45.602;11.904;2023-04-28T09:54:55;3.70;;;2.38;;
62574;SDS011;53112;45.602;11.904;2023-04-28T09:57:22;4.07;;;2.20;;
62574;SDS011;53112;45.602;11.904;2023-04-28T09:59:49;3.78;;;1.88;;
62574;SDS011;53112;45.602;11.904;2023-04-28T10:02:17;2.50;;;2.00;;
62574;SDS011;53112;45.602;11.904;2023-04-28T10:04:47;3.92;;;2.38;;
62574;SDS011;53112;45.602;11.904;2023-04-28T10:07:14;6.07;;;2.28;;
62574;SDS011;53112;45.602;11.904;2023-04-28T10:09:42;4.65;;;2.28;;
62574;SDS011;53112;45.602;11.904;2023-04-28T10:12:11;3.88;;;2.60;;
62574;SDS011;53112;45.602;11.904;2023-04-28T10:14:39;4.63;;;2.30;;
62574;SDS011;53112;45.602;11.904;2023-04-28T10:17:07;4.35;;;2.33;;
62574;SDS011;53112;45.602;11.904;2023-04-28T10:19:33;3.70;;;2.35;;
62574;SDS011;53112;45.602;11.904;2023-04-28T10:22:14;4.85;;;2.20;;
62574;SDS011;53112;45.602;11.904;2023-04-28T10:27:45;4.88;;;2.65;;
62574;SDS011;53112;45.602;11.904;2023-04-28T10:30:12;4.20;;;2.42;;
62574;SDS011;53112;45.602;11.904;2023-04-28T10:32:40;3.67;;;2.28;;
62574;SDS011;53112;45.602;11.904;2023-04-28T10:43:04;2.63;;;2.00;;
62574;SDS011;53112;45.602;11.904;2023-04-28T10:48:20;3.80;;;2.33;;
62574;SDS011;53112;45.602;11.904;2023-04-28T10:51:16;3.83;;;2.20;;
62574;SDS011;53112;45.602;11.904;2023-04-28T10:56:08;3.03;;;2.15;;
62574;SDS011;53112;45.602;11.904;2023-04-28T10:58:41;3.80;;;2.40;;
62574;SDS011;53112;45.602;11.904;2023-04-28T11:19:19;3.53;;;2.30;;
62574;SDS011;53112;45.602;11.904;2023-04-28T11:21:47;4.68;;;2.45;;
62574;SDS011;53112;45.602;11.904;2023-04-28T11:24:14;4.47;;;2.30;;
62574;SDS011;53112;45.602;11.904;2023-04-28T11:26:40;4.25;;;2.10;;
62574;SDS011;53112;45.602;11.904;2023-04-28T11:29:06;3.80;;;2.20;;
62574;SDS011;53112;45.602;11.904;2023-04-28T11:31:33;4.00;;;2.10;;
62574;SDS011;53112;45.602;11.904;2023-04-28T11:34:00;3.53;;;2.10;;
62574;SDS011;53112;45.602;11.904;2023-04-28T11:36:29;3.60;;;2.20;;
62574;SDS011;53112;45.602;11.904;2023-04-28T11:38:58;2.53;;;2.20;;
62574;SDS011;53112;45.602;11.904;2023-04-28T11:41:24;4.22;;;2.33;;
62574;SDS011;53112;45.602;11.904;2023-04-28T11:43:50;4.25;;;2.40;;
62574;SDS011;53112;45.602;11.904;2023-04-28T11:46:18;3.75;;;2.30;;
62574;SDS011;53112;45.602;11.904;2023-04-28T11:48:46;4.25;;;2.35;;
62574;SDS011;53112;45.602;11.904;2023-04-28T11:54:11;3.65;;;2.25;;
62574;SDS011;53112;45.602;11.904;2023-04-28T11:56:39;3.50;;;2.30;;
62574;SDS011;53112;45.602;11.904;2023-04-28T11:59:07;2.97;;;2.10;;
62574;SDS011;53112;45.602;11.904;2023-04-28T12:01:45;3.90;;;2.20;;
62574;SDS011;53112;45.602;11.904;2023-04-28T12:04:14;4.47;;;2.20;;
62574;SDS011;53112;45.602;11.904;2023-04-28T12:06:58;3.25;;;2.20;;
62574;SDS011;53112;45.602;11.904;2023-04-28T12:09:25;3.67;;;2.10;;
62574;SDS011;53112;45.602;11.904;2023-04-28T12:11:51;3.33;;;2.10;;
62574;SDS011;53112;45.602;11.904;2023-04-28T12:14:18;4.57;;;2.30;;
62574;SDS011;53112;45.602;11.904;2023-04-28T12:19:14;3.30;;;2.10;;
62574;SDS011;53112;45.602;11.904;2023-04-28T12:21:41;3.45;;;2.00;;
62574;SDS011;53112;45.602;11.904;2023-04-28T12:24:19;2.90;;;2.25;;
62574;SDS011;53112;45.602;11.904;2023-04-28T12:26:46;2.42;;;1.88;;
62574;SDS011;53112;45.602;11.904;2023-04-28T12:32:04;2.58;;;2.03;;
62574;SDS011;53112;45.602;11.904;2023-04-28T12:34:33;3.22;;;2.17;;
62574;SDS011;53112;45.602;11.904;2023-04-28T12:37:00;3.22;;;2.00;;
62574;SDS011;53112;45.602;11.904;2023-04-28T12:39:27;2.50;;;2.00;;
62574;SDS011;53112;45.602;11.904;2023-04-28T12:41:53;3.67;;;2.00;;
62574;SDS011;53112;45.602;11.904;2023-04-28T12:44:20;3.55;;;1.92;;
62574;SDS011;53112;45.602;11.904;2023-04-28T12:46:47;2.75;;;1.95;;
62574;SDS011;53112;45.602;11.904;2023-04-28T12:49:13;3.10;;;1.90;;
62574;SDS011;53112;45.602;11.904;2023-04-28T12:51:39;2.65;;;2.13;;
62574;SDS011;53112;45.602;11.904;2023-04-28T12:54:06;4.35;;;2.10;;
62574;SDS011;53112;45.602;11.904;2023-04-28T12:56:32;3.22;;;2.00;;
62574;SDS011;53112;45.602;11.904;2023-04-28T12:58:58;3.63;;;2.13;;
62574;SDS011;53112;45.602;11.904;2023-04-28T13:01:26;2.67;;;2.00;;
62574;SDS011;53112;45.602;11.904;2023-04-28T13:03:52;3.20;;;2.15;;
62574;SDS011;53112;45.602;11.904;2023-04-28T13:06:18;2.30;;;1.80;;
62574;SDS011;53112;45.602;11.904;2023-04-28T13:08:44;3.15;;;1.80;;
62574;SDS011;53112;45.602;11.904;2023-04-28T13:11:10;3.90;;;2.00;;
62574;SDS011;53112;45.602;11.904;2023-04-28T13:13:36;3.03;;;1.83;;
62574;SDS011;53112;45.602;11.904;2023-04-28T13:16:03;2.45;;;1.73;;
62574;SDS011;53112;45.602;11.904;2023-04-28T13:18:30;2.70;;;1.80;;
62574;SDS011;53112;45.602;11.904;2023-04-28T13:20:56;2.50;;;1.80;;
62574;SDS011;53112;45.602;11.904;2023-04-28T13:23:22;2.13;;;1.80;;
62574;SDS011;53112;45.602;11.904;2023-04-28T13:25:49;2.97;;;1.83;;
62574;SDS011;53112;45.602;11.904;2023-04-28T13:28:15;3.60;;;1.90;;
62574;SDS011;53112;45.602;11.904;2023-04-28T13:30:41;2.13;;;1.80;;
62574;SDS011;53112;45.602;11.904;2023-04-28T13:33:07;1.85;;;1.70;;
62574;SDS011;53112;45.602;11.904;2023-04-28T13:35:33;3.08;;;1.80;;
62574;SDS011;53112;45.602;11.904;2023-04-28T13:37:58;2.97;;;1.70;;
62574;SDS011;53112;45.602;11.904;2023-04-28T13:40:27;2.10;;;1.90;;
62574;SDS011;53112;45.602;11.904;2023-04-28T13:42:53;2.67;;;1.90;;
62574;SDS011;53112;45.602;11.904;2023-04-28T13:45:19;2.72;;;1.70;;
62574;SDS011;53112;45.602;11.904;2023-04-28T13:47:46;2.97;;;1.98;;
62574;SDS011;53112;45.602;11.904;2023-04-28T13:50:13;2.60;;;1.70;;
62574;SDS011;53112;45.602;11.904;2023-04-28T13:52:39;2.15;;;1.80;;
62574;SDS011;53112;45.602;11.904;2023-04-28T13:55:05;2.03;;;1.75;;
62574;SDS011;53112;45.602;11.904;2023-04-28T13:57:31;2.88;;;1.83;;
62574;SDS011;53112;45.602;11.904;2023-04-28T13:59:57;2.15;;;1.70;;
62574;SDS011;53112;45.602;11.904;2023-04-28T14:02:23;2.03;;;1.65;;
62574;SDS011;53112;45.602;11.904;2023-04-28T14:04:49;2.05;;;1.85;;
62574;SDS011;53112;45.602;11.904;2023-04-28T14:07:17;2.50;;;1.70;;
62574;SDS011;53112;45.602;11.904;2023-04-28T14:09:43;2.42;;;1.70;;
62574;SDS011;53112;45.602;11.904;2023-04-28T14:12:09;2.03;;;1.83;;
62574;SDS011;53112;45.602;11.904;2023-04-28T14:14:35;2.00;;;1.80;;
62574;SDS011;53112;45.602;11.904;2023-04-28T14:17:01;2.10;;;1.63;;
62574;SDS011;53112;45.602;11.904;2023-04-28T14:19:28;3.05;;;1.88;;
62574;SDS011;53112;45.602;11.904;2023-04-28T14:21:54;2.13;;;1.70;;
62574;SDS011;53112;45.602;11.904;2023-04-28T14:24:20;1.95;;;1.70;;
62574;SDS011;53112;45.602;11.904;2023-04-28T14:26:46;2.45;;;1.80;;
62574;SDS011;53112;45.602;11.904;2023-04-28T14:29:13;2.17;;;1.75;;
62574;SDS011;53112;45.602;11.904;2023-04-28T14:31:40;1.90;;;1.60;;
62574;SDS011;53112;45.602;11.904;2023-04-28T14:34:06;2.35;;;1.92;;
62574;SDS011;53112;45.602;11.904;2023-04-28T14:36:32;2.88;;;1.88;;
62574;SDS011;53112;45.602;11.904;2023-04-28T14:38:58;2.95;;;1.70;;
62574;SDS011;53112;45.602;11.904;2023-04-28T14:41:24;1.95;;;1.70;;
62574;SDS011;53112;45.602;11.904;2023-04-28T14:43:50;1.88;;;1.67;;
62574;SDS011;53112;45.602;11.904;2023-04-28T14:46:16;2.20;;;1.65;;
62574;SDS011;53112;45.602;11.904;2023-04-28T14:48:47;2.70;;;1.60;;
62574;SDS011;53112;45.602;11.904;2023-04-28T14:51:14;2.05;;;1.63;;
62574;SDS011;53112;45.602;11.904;2023-04-28T14:53:40;2.08;;;1.75;;
62574;SDS011;53112;45.602;11.904;2023-04-28T14:56:06;2.47;;;1.70;;
62574;SDS011;53112;45.602;11.904;2023-04-28T14:58:33;1.95;;;1.67;;
62574;SDS011;53112;45.602;11.904;2023-04-28T15:01:00;3.25;;;1.70;;
62574;SDS011;53112;45.602;11.904;2023-04-28T15:03:27;1.60;;;1.50;;
62574;SDS011;53112;45.602;11.904;2023-04-28T15:05:53;2.50;;;1.77;;
62574;SDS011;53112;45.602;11.904;2023-04-28T15:08:19;1.70;;;1.60;;
62574;SDS011;53112;45.602;11.904;2023-04-28T15:10:45;2.45;;;1.70;;
62574;SDS011;53112;45.602;11.904;2023-04-28T15:15:40;3.15;;;1.67;;